Time;durP1;ratioP1;P1;durP2;ratioP2;P2;SDS_P1;SDS_P2;PMS_P1;PMS_P2;Temp;Humidity;BMP_temperature;BMP_pressure;BME280_temperature;BME280_humidity;BME280_pressure;Samples;Min_cycle;Max_cycle;Signal;HPM_P1;HPM_P2
2022/04/01 00:03:57;;;;;;;;;;;17.50;35.40;;;;;;8366689;28;19917;-48
2022/04/01 00:07:57;;;;;;;;;;;17.50;35.40;;;;;;8366694;28;19913;-48
2022/04/01 00:11:58;;;;;;;;;;;17.50;35.40;;;;;;8365908;28;19924;-48
2022/04/01 00:15:59;;;;;;;;;;;17.50;35.40;;;;;;8366411;28;19921;-48
2022/04/01 00:19:59;;;;;;;;;;;17.50;35.40;;;;;;8366011;28;19929;-48
2022/04/01 00:24:00;;;;;;;;;;;17.50;35.40;;;;;;8365537;28;20301;-49
2022/04/01 00:28:00;;;;;;;;;;;17.50;35.40;;;;;;8366052;28;19920;-48
2022/04/01 00:32:01;;;;;;;;;;;17.50;35.40;;;;;;8365505;28;19917;-49
2022/04/01 00:36:01;;;;;;;;;;;17.50;35.40;;;;;;8365048;28;19970;-49
2022/04/01 00:40:02;;;;;;;;;;;17.50;35.40;;;;;;8365262;28;20018;-49
2022/04/01 00:44:17;;;;;;;;;;;17.40;35.40;;;;;;8365256;28;19917;-50
2022/04/01 00:48:18;;;;;;;;;;;17.50;35.40;;;;;;8386724;28;19927;-48
2022/04/01 00:52:19;;;;;;;;;;;17.50;35.50;;;;;;8336053;28;20285;-48
2022/04/01 00:56:20;;;;;;;;;;;17.50;35.50;;;;;;8331679;28;19960;-48
2022/04/01 01:00:20;;;;;;;;;;;17.40;35.90;;;;;;8331890;28;20373;-48
2022/04/01 01:04:21;;;;;;;;;;;17.50;35.50;;;;;;8330419;28;19917;-49
2022/04/01 01:08:21;;;;;;;;;;;17.40;35.40;;;;;;8331492;28;19921;-49
2022/04/01 01:12:23;;;;;;;;;;;17.40;35.40;;;;;;8331369;28;20282;-49
2022/04/01 01:16:24;;;;;;;;;;;17.40;35.40;;;;;;8331277;28;19917;-50
2022/04/01 01:20:25;;;;;;;;;;;17.40;35.40;;;;;;8330779;28;20290;-49
2022/04/01 01:24:35;;;;;;;;;;;17.40;35.40;;;;;;8331276;28;20004;-51
2022/04/01 01:28:36;;;;;;;;;;;17.40;35.40;;;;;;8331043;28;19963;-50
2022/04/01 01:32:37;;;;;;;;;;;17.40;35.40;;;;;;8330461;28;20339;-46
2022/04/01 01:36:38;;;;;;;;;;;17.40;35.50;;;;;;8331950;28;19925;-47
2022/04/01 01:40:38;;;;;;;;;;;17.40;35.50;;;;;;8331760;28;19917;-49
2022/04/01 01:44:39;;;;;;;;;;;17.40;35.50;;;;;;8331197;28;19917;-48
2022/04/01 01:48:40;;;;;;;;;;;17.40;35.40;;;;;;8331782;28;20275;-49
2022/04/01 01:56:59;;;;;;;;;;;17.40;35.50;;;;;;8330064;28;19943;-54
2022/04/01 02:01:00;;;;;;;;;;;17.40;35.50;;;;;;8330423;28;20369;-51
2022/04/01 02:05:01;;;;;;;;;;;17.40;35.50;;;;;;8330261;28;19921;-50
2022/04/01 02:09:01;;;;;;;;;;;17.40;35.50;;;;;;8330091;28;20440;-52
2022/04/01 02:13:03;;;;;;;;;;;17.40;35.50;;;;;;8329944;28;20403;-49
2022/04/01 02:17:04;;;;;;;;;;;17.40;35.50;;;;;;8336356;28;19925;-50
2022/04/01 02:21:10;;;;;;;;;;;17.30;35.40;;;;;;8336297;28;20366;-48
2022/04/01 02:25:11;;;;;;;;;;;17.30;35.40;;;;;;8338007;28;19920;-48
2022/04/01 02:29:11;;;;;;;;;;;17.30;35.40;;;;;;8336386;28;20289;-51
2022/04/01 02:33:12;;;;;;;;;;;17.30;35.50;;;;;;8336275;28;19926;-50
2022/04/01 02:37:12;;;;;;;;;;;17.30;35.50;;;;;;8336187;28;19925;-51
2022/04/01 02:41:12;;;;;;;;;;;17.30;35.50;;;;;;8335686;28;20366;-48
2022/04/01 02:45:13;;;;;;;;;;;17.30;35.50;;;;;;8336055;28;19920;-50
2022/04/01 02:49:15;;;;;;;;;;;17.30;35.40;;;;;;8336403;28;19924;-49
2022/04/01 02:53:16;;;;;;;;;;;17.30;35.50;;;;;;8335396;28;20424;-49
2022/04/01 02:57:16;;;;;;;;;;;17.30;35.50;;;;;;8336052;28;19925;-48
2022/04/01 03:01:17;;;;;;;;;;;17.30;35.50;;;;;;8335767;28;19948;-48
2022/04/01 03:05:17;;;;;;;;;;;17.30;35.50;;;;;;8335059;28;20012;-50
2022/04/01 03:09:19;;;;;;;;;;;17.30;35.50;;;;;;8336021;28;19948;-49
2022/04/01 03:13:19;;;;;;;;;;;17.30;35.50;;;;;;8335148;28;19921;-49
2022/04/01 03:17:20;;;;;;;;;;;17.30;35.50;;;;;;8334511;28;20453;-46
2022/04/01 03:21:20;;;;;;;;;;;17.20;35.40;;;;;;8335207;28;19917;-49
2022/04/01 03:25:21;;;;;;;;;;;17.30;35.50;;;;;;8333732;28;19913;-48
2022/04/01 03:29:21;;;;;;;;;;;17.20;35.40;;;;;;8334520;28;19962;-48
2022/04/01 03:33:22;;;;;;;;;;;17.20;35.50;;;;;;8334652;28;19956;-48
2022/04/01 03:37:23;;;;;;;;;;;17.20;35.50;;;;;;8334393;28;19929;-50
2022/04/01 03:41:23;;;;;;;;;;;17.20;35.50;;;;;;8333959;28;19913;-48
2022/04/01 03:45:24;;;;;;;;;;;17.20;35.50;;;;;;8334604;28;19967;-51
2022/04/01 03:49:25;;;;;;;;;;;17.20;35.50;;;;;;8334577;28;20012;-49
2022/04/01 03:53:27;;;;;;;;;;;17.20;35.50;;;;;;8333665;28;19917;-50
2022/04/01 03:57:33;;;;;;;;;;;17.20;35.50;;;;;;8333784;28;19971;-47
2022/04/01 04:01:34;;;;;;;;;;;17.20;35.40;;;;;;8333819;28;19969;-49
2022/04/01 04:05:38;;;;;;;;;;;17.20;35.40;;;;;;8332537;28;19917;-49
2022/04/01 04:09:39;;;;;;;;;;;17.20;35.50;;;;;;8333691;28;19991;-47
2022/04/01 04:13:41;;;;;;;;;;;17.20;35.50;;;;;;8333471;28;19966;-46
2022/04/01 04:17:44;;;;;;;;;;;17.20;35.50;;;;;;8332702;28;20275;-47
2022/04/01 04:22:03;;;;;;;;;;;17.20;35.60;;;;;;8333333;28;20297;-48
2022/04/01 04:26:12;;;;;;;;;;;17.20;35.60;;;;;;8333066;28;19964;-46
2022/04/01 04:30:12;;;;;;;;;;;17.10;35.50;;;;;;8332570;28;20364;-50
2022/04/01 04:34:14;;;;;;;;;;;17.20;35.50;;;;;;8333098;28;19966;-47
2022/04/01 04:38:16;;;;;;;;;;;17.10;35.50;;;;;;8331945;28;20283;-48
2022/04/01 04:42:16;;;;;;;;;;;17.10;35.40;;;;;;8332716;28;19918;-48
2022/04/01 04:46:18;;;;;;;;;;;17.10;35.40;;;;;;8339640;28;19917;-47
2022/04/01 04:50:19;;;;;;;;;;;17.10;35.40;;;;;;8395114;28;19958;-48
2022/04/01 04:54:20;;;;;;;;;;;17.10;35.40;;;;;;8332299;28;19917;-49
2022/04/01 04:58:21;;;;;;;;;;;17.10;35.40;;;;;;8332198;28;19925;-49
2022/04/01 05:02:39;;;;;;;;;;;17.10;35.40;;;;;;8331372;28;20008;-48
2022/04/01 05:06:48;;;;;;;;;;;17.10;35.40;;;;;;8331765;28;19920;-47
2022/04/01 05:11:00;;;;;;;;;;;17.10;35.40;;;;;;8331723;28;19921;-47
2022/04/01 05:15:01;;;;;;;;;;;17.10;35.40;;;;;;8331196;28;20294;-47
2022/04/01 05:19:12;;;;;;;;;;;17.10;35.40;;;;;;8331592;28;19925;-49
2022/04/01 05:23:15;;;;;;;;;;;17.10;35.40;;;;;;8330899;28;19913;-48
2022/04/01 05:27:23;;;;;;;;;;;17.10;35.40;;;;;;8331289;28;19928;-47
2022/04/01 05:31:26;;;;;;;;;;;17.10;35.40;;;;;;8331076;28;20011;-49
2022/04/01 05:35:29;;;;;;;;;;;17.10;35.40;;;;;;8330740;28;19917;-48
2022/04/01 05:39:30;;;;;;;;;;;17.00;35.40;;;;;;8331395;28;20409;-51
2022/04/01 05:43:31;;;;;;;;;;;17.00;35.40;;;;;;8355756;28;19952;-46
2022/04/01 05:47:32;;;;;;;;;;;17.00;35.40;;;;;;8363374;28;20354;-48
2022/04/01 05:51:33;;;;;;;;;;;17.00;35.40;;;;;;8362890;28;19920;-49
2022/04/01 05:55:35;;;;;;;;;;;17.00;35.40;;;;;;8363779;28;19920;-48
2022/04/01 05:59:36;;;;;;;;;;;17.00;35.40;;;;;;8362821;28;19932;-48
2022/04/01 06:03:54;;;;;;;;;;;17.00;35.40;;;;;;8361475;28;20016;-50
2022/04/01 06:07:55;;;;;;;;;;;17.00;35.40;;;;;;8362903;28;19917;-49
2022/04/01 06:11:58;;;;;;;;;;;17.00;35.40;;;;;;8362492;28;20007;-48
2022/04/01 06:16:05;;;;;;;;;;;17.00;35.40;;;;;;8363192;28;20003;-48
2022/04/01 06:20:07;;;;;;;;;;;17.00;35.40;;;;;;8363243;28;19921;-54
2022/04/01 06:24:08;;;;;;;;;;;17.00;35.40;;;;;;8362466;28;19986;-50
2022/04/01 06:28:20;;;;;;;;;;;17.00;35.40;;;;;;8363078;28;19920;-49
2022/04/01 06:32:29;;;;;;;;;;;17.00;35.40;;;;;;8362350;28;19921;-53
2022/04/01 06:36:39;;;;;;;;;;;16.90;35.30;;;;;;8362966;28;19917;-49
2022/04/01 06:40:55;;;;;;;;;;;17.00;35.40;;;;;;8362605;28;19967;-48
2022/04/01 06:44:56;;;;;;;;;;;17.00;35.30;;;;;;8362227;28;20432;-50
2022/04/01 06:48:56;;;;;;;;;;;17.00;35.30;;;;;;8362467;28;19932;-50
2022/04/01 06:52:57;;;;;;;;;;;17.00;35.30;;;;;;8362232;28;19917;-49
2022/04/01 06:56:57;;;;;;;;;;;17.00;35.30;;;;;;8361432;28;19971;-49
2022/04/01 07:00:58;;;;;;;;;;;17.00;35.30;;;;;;8365076;28;19912;-49
2022/04/01 07:04:58;;;;;;;;;;;17.00;35.30;;;;;;8367663;28;19916;-49
2022/04/01 07:08:59;;;;;;;;;;;16.90;35.30;;;;;;8367708;28;20500;-48
2022/04/01 07:12:59;;;;;;;;;;;16.90;35.30;;;;;;8368651;28;20026;-53
2022/04/01 07:17:01;;;;;;;;;;;16.90;35.30;;;;;;8368017;28;19924;-48
2022/04/01 07:21:01;;;;;;;;;;;16.90;35.30;;;;;;8367538;28;19967;-49
2022/04/01 07:25:02;;;;;;;;;;;16.90;35.30;;;;;;8367934;28;19917;-48
2022/04/01 07:29:03;;;;;;;;;;;16.90;35.30;;;;;;8366415;28;19917;-48
2022/04/01 07:33:03;;;;;;;;;;;16.90;35.30;;;;;;8367063;28;19923;-53
2022/04/01 07:37:05;;;;;;;;;;;16.90;35.30;;;;;;8367501;28;19925;-48
2022/04/01 07:41:05;;;;;;;;;;;16.90;35.20;;;;;;8367557;28;19999;-53
2022/04/01 07:45:06;;;;;;;;;;;16.90;35.30;;;;;;8366668;28;19924;-50
2022/04/01 07:49:07;;;;;;;;;;;16.90;35.30;;;;;;8367507;28;19921;-48
2022/04/01 07:53:07;;;;;;;;;;;16.90;35.30;;;;;;8367204;28;19917;-51
2022/04/01 07:57:09;;;;;;;;;;;16.90;35.30;;;;;;8366366;28;19925;-49
2022/04/01 08:01:11;;;;;;;;;;;16.90;35.30;;;;;;8394676;28;20284;-53
2022/04/01 08:05:12;;;;;;;;;;;16.90;35.30;;;;;;8337712;28;20423;-48
2022/04/01 08:09:13;;;;;;;;;;;16.90;35.30;;;;;;8333699;28;19975;-52
2022/04/01 08:13:13;;;;;;;;;;;16.90;35.30;;;;;;8333118;28;19917;-49
2022/04/01 08:17:15;;;;;;;;;;;16.90;35.30;;;;;;8332819;28;19960;-48
2022/04/01 08:21:16;;;;;;;;;;;16.90;35.20;;;;;;8333770;28;19913;-49
2022/04/01 08:25:16;;;;;;;;;;;16.90;35.30;;;;;;8332963;28;19917;-47
2022/04/01 08:29:17;;;;;;;;;;;16.90;35.30;;;;;;8332470;28;19917;-52
2022/04/01 08:33:20;;;;;;;;;;;16.90;35.30;;;;;;8332866;28;20048;-49
2022/04/01 08:37:20;;;;;;;;;;;16.90;35.30;;;;;;8332767;28;19960;-53
2022/04/01 08:41:22;;;;;;;;;;;16.90;35.20;;;;;;8332278;28;20294;-50
2022/04/01 08:45:22;;;;;;;;;;;16.90;35.30;;;;;;8332678;28;20008;-50
2022/04/01 08:49:23;;;;;;;;;;;16.90;35.30;;;;;;8332426;28;19924;-51
2022/04/01 08:53:24;;;;;;;;;;;16.90;35.30;;;;;;8331728;28;19917;-48
2022/04/01 08:57:24;;;;;;;;;;;16.90;35.30;;;;;;8332489;28;19925;-51
2022/04/01 09:01:26;;;;;;;;;;;16.90;35.30;;;;;;8331920;28;19944;-50
2022/04/01 09:05:27;;;;;;;;;;;16.90;35.30;;;;;;8331237;28;19917;-52
2022/04/01 09:09:29;;;;;;;;;;;16.90;35.30;;;;;;8331427;28;19960;-50
2022/04/01 09:13:31;;;;;;;;;;;16.90;35.30;;;;;;8331655;28;19917;-47
2022/04/01 09:17:44;;;;;;;;;;;16.90;35.30;;;;;;8330738;28;19933;-51
2022/04/01 09:21:47;;;;;;;;;;;17.00;35.30;;;;;;8331566;28;20297;-48
2022/04/01 09:25:48;;;;;;;;;;;17.00;35.30;;;;;;8330072;28;19925;-53
2022/04/01 09:29:48;;;;;;;;;;;16.90;35.30;;;;;;8330497;28;20403;-47
2022/04/01 09:33:50;;;;;;;;;;;17.00;35.30;;;;;;8331031;28;19917;-51
2022/04/01 09:37:52;;;;;;;;;;;16.90;35.30;;;;;;8330605;28;20018;-48
2022/04/01 09:41:54;;;;;;;;;;;16.90;35.30;;;;;;8330499;28;20521;-49
2022/04/01 09:45:55;;;;;;;;;;;16.90;35.30;;;;;;8330538;28;19923;-48
2022/04/01 09:49:57;;;;;;;;;;;17.00;35.30;;;;;;8330558;28;20327;-47
2022/04/01 09:54:02;;;;;;;;;;;17.00;35.40;;;;;;8330013;28;19918;-51
2022/04/01 09:58:03;;;;;;;;;;;17.00;35.40;;;;;;8330423;28;19931;-52
2022/04/01 10:02:04;;;;;;;;;;;17.00;35.40;;;;;;8330652;28;19921;-49
2022/04/01 10:06:04;;;;;;;;;;;16.90;35.30;;;;;;8329675;28;19939;-49
2022/04/01 10:10:06;;;;;;;;;;;17.00;35.40;;;;;;8338687;28;19924;-53
2022/04/01 10:14:11;;;;;;;;;;;17.00;35.40;;;;;;8363153;28;20022;-49
2022/04/01 10:18:12;;;;;;;;;;;17.00;35.40;;;;;;8362030;28;19974;-53
2022/04/01 10:22:16;;;;;;;;;;;16.90;35.30;;;;;;8363138;28;20000;-49
2022/04/01 10:26:18;;;;;;;;;;;17.00;35.40;;;;;;8362261;28;19916;-49
2022/04/01 10:30:20;;;;;;;;;;;17.00;35.40;;;;;;8362995;28;20435;-52
2022/04/01 10:34:22;;;;;;;;;;;16.90;35.40;;;;;;8362777;28;20004;-47
2022/04/01 10:38:24;;;;;;;;;;;16.90;35.40;;;;;;8368660;28;20299;-52
2022/04/01 10:42:32;;;;;;;;;;;16.90;35.40;;;;;;8369139;28;19917;-48
2022/04/01 10:46:37;;;;;;;;;;;16.90;35.40;;;;;;8369425;28;19917;-48
2022/04/01 10:55:08;;;;;;;;;;;16.90;35.40;;;;;;8369118;28;19981;-50
2022/04/01 10:59:11;;;;;;;;;;;16.90;35.50;;;;;;8368690;28;19928;-52
2022/04/01 11:03:21;;;;;;;;;;;16.90;35.40;;;;;;8368155;28;19917;-49
2022/04/01 11:07:21;;;;;;;;;;;16.90;35.40;;;;;;8368501;28;19920;-48
2022/04/01 11:11:22;;;;;;;;;;;16.90;35.40;;;;;;8367557;28;20321;-54
2022/04/01 11:15:24;;;;;;;;;;;17.00;35.40;;;;;;8368188;28;19917;-48
2022/04/01 11:19:27;;;;;;;;;;;17.00;35.50;;;;;;8367945;28;20292;-51
2022/04/01 11:23:28;;;;;;;;;;;17.00;35.40;;;;;;8367485;28;19923;-48
2022/04/01 11:27:28;;;;;;;;;;;17.00;35.40;;;;;;8368065;28;19913;-52
2022/04/01 11:31:29;;;;;;;;;;;17.00;35.40;;;;;;8367545;28;19923;-50
2022/04/01 11:35:31;;;;;;;;;;;17.00;35.40;;;;;;8367021;28;19921;-49
2022/04/01 11:39:32;;;;;;;;;;;17.00;35.40;;;;;;8367342;28;19925;-48
2022/04/01 11:43:34;;;;;;;;;;;17.00;35.30;;;;;;8367340;28;20397;-48
2022/04/01 11:47:37;;;;;;;;;;;17.00;35.30;;;;;;8365930;28;19913;-50
2022/04/01 11:51:38;;;;;;;;;;;17.00;35.40;;;;;;8366870;28;20051;-49
2022/04/01 11:55:42;;;;;;;;;;;17.00;35.40;;;;;;8367102;28;20348;-51
2022/04/01 11:59:42;;;;;;;;;;;17.00;35.40;;;;;;8366174;28;19925;-48
2022/04/01 12:03:43;;;;;;;;;;;17.00;35.40;;;;;;8366669;28;19917;-51
2022/04/01 12:12:11;;;;;;;;;;;17.00;35.40;;;;;;8366062;28;20014;-51
2022/04/01 12:16:11;;;;;;;;;;;17.00;35.40;;;;;;8366189;28;20353;-49
2022/04/01 12:20:13;;;;;;;;;;;16.90;35.30;;;;;;8365603;28;20369;-47
2022/04/01 12:24:13;;;;;;;;;;;17.00;35.40;;;;;;8366378;28;19921;-52
2022/04/01 12:28:15;;;;;;;;;;;17.00;35.30;;;;;;8365792;28;19960;-50
2022/04/01 12:32:17;;;;;;;;;;;17.00;35.30;;;;;;8362793;28;19999;-52
2022/04/01 12:36:30;;;;;;;;;;;17.00;35.40;;;;;;8340536;28;19917;-48
2022/04/01 12:40:47;;;;;;;;;;;16.90;35.30;;;;;;8350904;28;19929;-47
2022/04/01 12:44:47;;;;;;;;;;;17.00;35.30;;;;;;8340422;28;20001;-52
2022/04/01 12:48:58;;;;;;;;;;;17.00;35.30;;;;;;8352013;28;20369;-51
2022/04/01 12:53:07;;;;;;;;;;;17.00;35.30;;;;;;8337621;28;19913;-48
2022/04/01 12:57:11;;;;;;;;;;;17.00;35.30;;;;;;8359629;28;19921;-49
2022/04/01 13:01:12;;;;;;;;;;;17.00;35.30;;;;;;8364449;28;20301;-52
2022/04/01 13:05:12;;;;;;;;;;;16.90;35.30;;;;;;8349674;28;19913;-50
2022/04/01 13:09:14;;;;;;;;;;;16.90;35.30;;;;;;8344454;28;20392;-51
2022/04/01 13:13:18;;;;;;;;;;;16.90;35.30;;;;;;8347706;28;19963;-52
2022/04/01 13:17:18;;;;;;;;;;;16.90;35.30;;;;;;8350512;28;19921;-52
2022/04/01 13:21:21;;;;;;;;;;;16.90;35.30;;;;;;8331065;28;19960;-49
2022/04/01 13:25:22;;;;;;;;;;;16.90;35.30;;;;;;8330177;28;20075;-50
2022/04/01 13:29:22;;;;;;;;;;;16.90;35.30;;;;;;8331138;28;20328;-48
2022/04/01 13:33:23;;;;;;;;;;;16.90;35.30;;;;;;8349461;28;19913;-51
2022/04/01 13:37:23;;;;;;;;;;;16.90;35.30;;;;;;8336614;28;19932;-49
2022/04/01 13:41:24;;;;;;;;;;;16.90;35.30;;;;;;8359218;28;19913;-52
2022/04/01 13:45:24;;;;;;;;;;;16.90;35.30;;;;;;8335940;28;19943;-48
2022/04/01 13:49:25;;;;;;;;;;;16.90;35.30;;;;;;8357624;28;19924;-49
2022/04/01 13:53:26;;;;;;;;;;;16.90;35.30;;;;;;8337339;28;19920;-52
2022/04/01 13:57:26;;;;;;;;;;;16.90;35.20;;;;;;8355851;28;20393;-50
2022/04/01 14:01:27;;;;;;;;;;;16.90;35.20;;;;;;8338150;28;19924;-53
2022/04/01 14:05:27;;;;;;;;;;;16.90;35.20;;;;;;8334570;28;20370;-52
2022/04/01 14:09:28;;;;;;;;;;;16.90;35.30;;;;;;8337933;28;19917;-53
2022/04/01 14:13:28;;;;;;;;;;;16.90;35.20;;;;;;8343638;28;20424;-48
2022/04/01 14:17:29;;;;;;;;;;;16.90;35.20;;;;;;8340357;28;19926;-48
2022/04/01 14:21:30;;;;;;;;;;;16.90;35.30;;;;;;8338145;28;19986;-48
2022/04/01 14:25:30;;;;;;;;;;;16.90;35.30;;;;;;8353335;28;19917;-47
2022/04/01 14:34:09;;;;;;;;;;;16.90;35.20;;;;;;8248931;28;19925;-49
2022/04/01 14:38:10;;;;;;;;;;;16.90;35.20;;;;;;8281760;28;20382;-51
2022/04/01 14:42:11;;;;;;;;;;;16.80;35.70;;;;;;8329440;28;19921;-50
2022/04/01 14:46:11;;;;;;;;;;;16.90;35.20;;;;;;8337251;28;19925;-51
2022/04/01 14:50:12;;;;;;;;;;;16.90;35.20;;;;;;8330503;28;20281;-50
2022/04/01 14:54:14;;;;;;;;;;;16.90;35.20;;;;;;8362485;28;19913;-49
2022/04/01 14:58:15;;;;;;;;;;;16.90;35.20;;;;;;8348146;28;20445;-48
2022/04/01 15:02:18;;;;;;;;;;;16.80;35.10;;;;;;8341041;28;19966;-50
2022/04/01 15:06:18;;;;;;;;;;;16.90;35.20;;;;;;8334227;28;19921;-50
2022/04/01 15:10:19;;;;;;;;;;;16.90;35.20;;;;;;8351919;28;20003;-50
2022/04/01 15:14:20;;;;;;;;;;;16.90;35.20;;;;;;8347889;28;20358;-51
2022/04/01 15:18:20;;;;;;;;;;;16.90;35.20;;;;;;8357238;28;20019;-51
2022/04/01 15:22:21;;;;;;;;;;;16.90;35.20;;;;;;8362427;28;19921;-49
2022/04/01 15:26:21;;;;;;;;;;;16.80;35.10;;;;;;8347341;28;19982;-50
2022/04/01 15:30:22;;;;;;;;;;;16.90;35.20;;;;;;8367401;28;19920;-53
2022/04/01 15:34:22;;;;;;;;;;;16.80;35.10;;;;;;8363218;28;19920;-48
2022/04/01 15:38:30;;;;;;;;;;;16.80;35.10;;;;;;8346590;28;19994;-48
2022/04/01 15:42:31;;;;;;;;;;;16.80;35.10;;;;;;8338912;28;19924;-48
2022/04/01 15:46:35;;;;;;;;;;;16.80;35.10;;;;;;8352538;28;20289;-52
2022/04/01 15:50:36;;;;;;;;;;;16.80;35.10;;;;;;8347849;28;19975;-52
2022/04/01 15:54:37;;;;;;;;;;;16.80;35.10;;;;;;8344299;28;19947;-51
2022/04/01 15:58:37;;;;;;;;;;;16.80;35.20;;;;;;8362571;28;20012;-49
2022/04/01 16:02:39;;;;;;;;;;;16.80;35.20;;;;;;8361863;28;20004;-53
2022/04/01 16:06:42;;;;;;;;;;;16.70;35.10;;;;;;8337831;28;20004;-47
2022/04/01 16:10:43;;;;;;;;;;;16.80;35.20;;;;;;8355530;28;19917;-51
2022/04/01 16:14:44;;;;;;;;;;;16.70;35.20;;;;;;8365844;28;19920;-50
2022/04/01 16:18:47;;;;;;;;;;;16.70;35.10;;;;;;8366326;28;19921;-49
2022/04/01 16:22:48;;;;;;;;;;;16.70;35.10;;;;;;8366212;28;19917;-48
2022/04/01 16:26:49;;;;;;;;;;;16.80;35.20;;;;;;8365410;28;20010;-48
2022/04/01 16:30:50;;;;;;;;;;;16.70;35.10;;;;;;8365842;28;19917;-50
2022/04/01 16:34:51;;;;;;;;;;;16.70;35.10;;;;;;8365517;28;19916;-50
2022/04/01 16:38:52;;;;;;;;;;;16.70;35.10;;;;;;8364595;28;19929;-52
2022/04/01 16:42:53;;;;;;;;;;;16.70;35.10;;;;;;8365434;28;20384;-50
2022/04/01 16:46:53;;;;;;;;;;;16.70;35.10;;;;;;8365273;28;19917;-48
2022/04/01 16:50:54;;;;;;;;;;;16.70;35.10;;;;;;8364625;28;19917;-51
2022/04/01 16:54:54;;;;;;;;;;;16.70;35.10;;;;;;8365237;28;19995;-48
2022/04/01 16:58:55;;;;;;;;;;;16.70;35.10;;;;;;8364730;28;20305;-52
2022/04/01 17:02:55;;;;;;;;;;;16.70;35.10;;;;;;8364653;28;19932;-49
2022/04/01 17:15:34;;;;;;;;;;;16.70;35.10;;;;;;8369649;28;19924;-51
2022/04/01 17:19:36;;;;;;;;;;;16.60;35.00;;;;;;8364443;28;19920;-51
2022/04/01 17:23:37;;;;;;;;;;;16.70;35.10;;;;;;8363425;28;19917;-53
2022/04/01 17:27:38;;;;;;;;;;;16.70;35.10;;;;;;8363833;28;20306;-49
2022/04/01 17:31:39;;;;;;;;;;;16.60;35.10;;;;;;8363787;28;19917;-53
2022/04/01 17:35:40;;;;;;;;;;;16.70;35.10;;;;;;8363192;28;19916;-49
2022/04/01 17:39:42;;;;;;;;;;;16.60;35.00;;;;;;8361149;28;19925;-53
2022/04/01 17:43:43;;;;;;;;;;;16.60;35.00;;;;;;8363659;28;19955;-48
2022/04/01 17:47:43;;;;;;;;;;;16.60;35.00;;;;;;8362374;28;20297;-53
2022/04/01 17:51:44;;;;;;;;;;;16.60;35.00;;;;;;8363367;28;19932;-54
2022/04/01 17:55:44;;;;;;;;;;;16.60;35.00;;;;;;8363306;28;19936;-50
2022/04/01 17:59:48;;;;;;;;;;;16.60;35.00;;;;;;8362755;28;19921;-48
2022/04/01 18:03:49;;;;;;;;;;;16.60;35.00;;;;;;8362960;28;19955;-49
2022/04/01 18:07:58;;;;;;;;;;;16.60;35.00;;;;;;8363067;28;20381;-48
2022/04/01 18:11:59;;;;;;;;;;;16.60;35.00;;;;;;8362393;28;19916;-50
2022/04/01 18:16:01;;;;;;;;;;;16.60;35.00;;;;;;8363236;28;19921;-47
2022/04/01 18:20:03;;;;;;;;;;;16.60;35.00;;;;;;8362996;28;20015;-50
2022/04/01 18:24:04;;;;;;;;;;;16.60;35.00;;;;;;8362445;28;19943;-48
2022/04/01 18:28:05;;;;;;;;;;;16.60;35.10;;;;;;8362672;28;19963;-49
2022/04/01 18:32:12;;;;;;;;;;;16.60;35.00;;;;;;8362668;28;19917;-48
2022/04/01 18:36:13;;;;;;;;;;;16.50;35.00;;;;;;8362611;28;20365;-49
2022/04/01 18:40:14;;;;;;;;;;;16.50;35.00;;;;;;8362727;28;20011;-49
2022/04/01 18:44:15;;;;;;;;;;;16.50;35.00;;;;;;8362114;28;19924;-51
2022/04/01 18:48:15;;;;;;;;;;;16.50;35.00;;;;;;8362293;28;19916;-50
2022/04/01 18:52:16;;;;;;;;;;;16.50;35.00;;;;;;8362401;28;19923;-50
2022/04/01 18:56:17;;;;;;;;;;;16.50;35.00;;;;;;8363439;28;19928;-47
2022/04/01 19:00:18;;;;;;;;;;;16.50;35.00;;;;;;8368837;28;20039;-48
2022/04/01 19:04:22;;;;;;;;;;;16.50;35.00;;;;;;8367056;28;19970;-48
2022/04/01 19:08:33;;;;;;;;;;;16.50;35.00;;;;;;8367890;28;20018;-51
2022/04/01 19:12:35;;;;;;;;;;;16.50;35.00;;;;;;8366715;28;20333;-49
2022/04/01 19:16:41;;;;;;;;;;;16.50;35.00;;;;;;8368258;28;19921;-48
2022/04/01 19:20:43;;;;;;;;;;;16.50;35.00;;;;;;8367567;28;20297;-47
2022/04/01 19:24:50;;;;;;;;;;;16.50;35.00;;;;;;8342225;28;19970;-48
2022/04/01 19:28:51;;;;;;;;;;;16.50;35.00;;;;;;8336100;28;19927;-48
2022/04/01 19:32:51;;;;;;;;;;;16.40;35.00;;;;;;8334276;28;20306;-48
2022/04/01 19:36:52;;;;;;;;;;;16.40;34.90;;;;;;8334512;28;20389;-47
2022/04/01 19:40:52;;;;;;;;;;;16.40;35.00;;;;;;8334573;28;19922;-48
2022/04/01 19:44:53;;;;;;;;;;;16.40;35.00;;;;;;8333808;28;20285;-49
2022/04/01 19:48:53;;;;;;;;;;;16.40;35.00;;;;;;8334363;28;19917;-49
2022/04/01 19:52:55;;;;;;;;;;;16.40;35.00;;;;;;8334121;28;19917;-48
2022/04/01 19:56:55;;;;;;;;;;;16.40;35.00;;;;;;8333845;28;19959;-49
2022/04/01 20:00:56;;;;;;;;;;;16.40;35.00;;;;;;8333986;28;19928;-47
2022/04/01 20:04:56;;;;;;;;;;;16.40;35.00;;;;;;8333785;28;19921;-47
2022/04/01 20:08:57;;;;;;;;;;;16.40;35.00;;;;;;8332410;28;20398;-52
2022/04/01 20:12:57;;;;;;;;;;;16.40;35.00;;;;;;8333626;28;20408;-50
2022/04/01 20:16:58;;;;;;;;;;;16.40;35.00;;;;;;8333480;28;19921;-49
2022/04/01 20:21:01;;;;;;;;;;;16.40;35.00;;;;;;8332993;28;20428;-49
2022/04/01 20:25:01;;;;;;;;;;;16.40;35.00;;;;;;8333375;28;19928;-49
2022/04/01 20:29:02;;;;;;;;;;;16.40;34.90;;;;;;8333085;28;19917;-48
2022/04/01 20:33:02;;;;;;;;;;;16.50;34.90;;;;;;8332381;28;19918;-47
2022/04/01 20:37:05;;;;;;;;;;;16.50;34.90;;;;;;8332822;28;19924;-50
2022/04/01 20:41:05;;;;;;;;;;;16.50;34.90;;;;;;8332864;28;19917;-49
2022/04/01 20:45:06;;;;;;;;;;;16.50;34.80;;;;;;8332006;28;20363;-48
2022/04/01 20:49:08;;;;;;;;;;;16.50;34.80;;;;;;8332269;28;19971;-46
2022/04/01 20:53:09;;;;;;;;;;;16.50;34.80;;;;;;8332196;28;19972;-49
2022/04/01 20:57:09;;;;;;;;;;;16.50;34.80;;;;;;8331645;28;19921;-49
2022/04/01 21:01:10;;;;;;;;;;;16.50;34.80;;;;;;8332227;28;19917;-50
2022/04/01 21:05:11;;;;;;;;;;;16.40;34.80;;;;;;8331697;28;19924;-47
2022/04/01 21:09:12;;;;;;;;;;;16.40;34.80;;;;;;8331799;28;19956;-49
2022/04/01 21:13:12;;;;;;;;;;;16.40;34.80;;;;;;8331607;28;19924;-48
2022/04/01 21:17:13;;;;;;;;;;;16.40;34.80;;;;;;8330908;28;19956;-50
2022/04/01 21:21:14;;;;;;;;;;;16.40;34.80;;;;;;8331968;28;19921;-48
2022/04/01 21:25:14;;;;;;;;;;;16.40;34.80;;;;;;8331174;28;19917;-47
2022/04/01 21:29:17;;;;;;;;;;;16.40;34.80;;;;;;8330869;28;20393;-48
2022/04/01 21:33:18;;;;;;;;;;;16.40;34.80;;;;;;8330786;28;19920;-48
2022/04/01 21:37:25;;;;;;;;;;;16.40;34.80;;;;;;8330652;28;20290;-48
2022/04/01 21:41:25;;;;;;;;;;;16.30;34.70;;;;;;8330628;28;20271;-53
2022/04/01 21:45:26;;;;;;;;;;;16.30;34.80;;;;;;8330605;28;20007;-50
2022/04/01 21:49:26;;;;;;;;;;;16.30;34.70;;;;;;8330677;28;20008;-48
2022/04/01 21:53:27;;;;;;;;;;;16.30;34.80;;;;;;8330031;28;19917;-47
2022/04/01 21:57:28;;;;;;;;;;;16.30;34.80;;;;;;8330171;28;19921;-53
2022/04/01 22:01:35;;;;;;;;;;;16.30;34.80;;;;;;8346683;28;20408;-49
2022/04/01 22:05:40;;;;;;;;;;;16.30;34.70;;;;;;8356274;28;21212;-49
2022/04/01 22:09:41;;;;;;;;;;;16.30;34.80;;;;;;8330463;28;19936;-50
2022/04/01 22:13:41;;;;;;;;;;;16.30;34.70;;;;;;8329863;28;20318;-49
2022/04/01 22:17:42;;;;;;;;;;;16.30;34.70;;;;;;8329385;28;19925;-47
2022/04/01 22:21:43;;;;;;;;;;;16.30;34.70;;;;;;8330310;28;19913;-48
2022/04/01 22:25:43;;;;;;;;;;;16.20;34.70;;;;;;8329966;28;20059;-49
2022/04/01 22:29:45;;;;;;;;;;;16.20;34.70;;;;;;8329250;28;19917;-47
2022/04/01 22:33:48;;;;;;;;;;;16.20;34.70;;;;;;8335478;28;19920;-48
2022/04/01 22:37:49;;;;;;;;;;;16.20;34.70;;;;;;8336156;28;19975;-49
2022/04/01 22:41:49;;;;;;;;;;;16.20;34.70;;;;;;8336139;28;19913;-48
2022/04/01 22:45:50;;;;;;;;;;;16.20;34.70;;;;;;8336186;28;19956;-48
2022/04/01 22:49:50;;;;;;;;;;;16.20;34.70;;;;;;8336051;28;19957;-49
2022/04/01 22:53:51;;;;;;;;;;;16.20;34.70;;;;;;8335503;28;20051;-48
2022/04/01 22:57:51;;;;;;;;;;;16.20;34.70;;;;;;8336034;28;19933;-48
2022/04/01 23:01:52;;;;;;;;;;;16.20;34.70;;;;;;8335900;28;19917;-47
2022/04/01 23:05:56;;;;;;;;;;;16.20;34.70;;;;;;8334994;28;19921;-49
2022/04/01 23:09:56;;;;;;;;;;;16.20;34.70;;;;;;8335617;28;20417;-50
2022/04/01 23:13:57;;;;;;;;;;;16.20;34.70;;;;;;8335363;28;19917;-48
2022/04/01 23:17:57;;;;;;;;;;;16.10;34.70;;;;;;8334440;28;20008;-48
2022/04/01 23:21:59;;;;;;;;;;;16.10;34.70;;;;;;8335307;28;20389;-48
2022/04/01 23:25:59;;;;;;;;;;;16.10;34.70;;;;;;8335000;28;19924;-48
2022/04/01 23:30:00;;;;;;;;;;;16.10;34.70;;;;;;8334174;28;19917;-48
2022/04/01 23:34:01;;;;;;;;;;;16.10;34.70;;;;;;8334631;28;19921;-49
2022/04/01 23:38:01;;;;;;;;;;;16.10;34.70;;;;;;8334775;28;19956;-47
2022/04/01 23:42:02;;;;;;;;;;;16.10;34.70;;;;;;8333434;28;19945;-49
2022/04/01 23:46:02;;;;;;;;;;;16.20;34.70;;;;;;8333897;28;19951;-48
2022/04/01 23:50:05;;;;;;;;;;;16.20;34.70;;;;;;8334367;28;19917;-47
2022/04/01 23:54:05;;;;;;;;;;;16.20;34.70;;;;;;8333718;28;19917;-47